sensor_id;sensor_type;location;lat;lon;timestamp;P1;durP1;ratioP1;P2;durP2;ratioP2
13404;SDS011;6773;51.192;7.024;2024-03-08T00:00:00;19.73;;;14.07;;
13404;SDS011;6773;51.192;7.024;2024-03-08T00:02:35;19.70;;;14.83;;
13404;SDS011;6773;51.192;7.024;2024-03-08T00:05:02;18.83;;;14.50;;
13404;SDS011;6773;51.192;7.024;2024-03-08T00:07:28;20.97;;;14.90;;
13404;SDS011;6773;51.192;7.024;2024-03-08T00:09:54;21.13;;;14.93;;
13404;SDS011;6773;51.192;7.024;2024-03-08T00:12:20;19.97;;;14.43;;
13404;SDS011;6773;51.192;7.024;2024-03-08T00:14:46;20.07;;;15.00;;
13404;SDS011;6773;51.192;7.024;2024-03-08T00:17:11;22.03;;;14.10;;
13404;SDS011;6773;51.192;7.024;2024-03-08T00:19:37;20.27;;;14.80;;
13404;SDS011;6773;51.192;7.024;2024-03-08T00:22:06;17.93;;;14.13;;
13404;SDS011;6773;51.192;7.024;2024-03-08T00:24:33;19.97;;;14.30;;
13404;SDS011;6773;51.192;7.024;2024-03-08T00:26:58;18.30;;;14.07;;
13404;SDS011;6773;51.192;7.024;2024-03-08T00:29:24;17.47;;;14.10;;
13404;SDS011;6773;51.192;7.024;2024-03-08T00:31:50;18.63;;;13.90;;
13404;SDS011;6773;51.192;7.024;2024-03-08T00:34:16;17.80;;;13.27;;
13404;SDS011;6773;51.192;7.024;2024-03-08T00:39:10;16.80;;;13.07;;
13404;SDS011;6773;51.192;7.024;2024-03-08T00:41:37;20.50;;;15.50;;
13404;SDS011;6773;51.192;7.024;2024-03-08T00:44:03;17.03;;;12.10;;
13404;SDS011;6773;51.192;7.024;2024-03-08T00:46:29;18.30;;;14.17;;
13404;SDS011;6773;51.192;7.024;2024-03-08T00:48:56;18.53;;;13.83;;
13404;SDS011;6773;51.192;7.024;2024-03-08T00:51:22;17.90;;;13.20;;
13404;SDS011;6773;51.192;7.024;2024-03-08T00:53:48;17.20;;;13.10;;
13404;SDS011;6773;51.192;7.024;2024-03-08T00:56:14;19.30;;;13.73;;
13404;SDS011;6773;51.192;7.024;2024-03-08T00:58:40;20.97;;;14.87;;
13404;SDS011;6773;51.192;7.024;2024-03-08T01:01:06;20.67;;;13.73;;
13404;SDS011;6773;51.192;7.024;2024-03-08T01:03:32;18.87;;;13.30;;
13404;SDS011;6773;51.192;7.024;2024-03-08T01:05:59;20.07;;;15.00;;
13404;SDS011;6773;51.192;7.024;2024-03-08T01:08:26;17.20;;;13.07;;
13404;SDS011;6773;51.192;7.024;2024-03-08T01:10:52;19.03;;;14.07;;
13404;SDS011;6773;51.192;7.024;2024-03-08T01:13:18;22.10;;;15.53;;
13404;SDS011;6773;51.192;7.024;2024-03-08T01:15:45;20.17;;;14.37;;
13404;SDS011;6773;51.192;7.024;2024-03-08T01:18:11;19.53;;;14.30;;
13404;SDS011;6773;51.192;7.024;2024-03-08T01:20:37;22.63;;;14.47;;
13404;SDS011;6773;51.192;7.024;2024-03-08T01:23:05;18.57;;;13.93;;
13404;SDS011;6773;51.192;7.024;2024-03-08T01:25:32;22.07;;;14.60;;
13404;SDS011;6773;51.192;7.024;2024-03-08T01:27:58;19.90;;;14.37;;
13404;SDS011;6773;51.192;7.024;2024-03-08T01:30:24;22.13;;;13.80;;
13404;SDS011;6773;51.192;7.024;2024-03-08T01:32:50;18.30;;;13.63;;
13404;SDS011;6773;51.192;7.024;2024-03-08T01:35:16;18.53;;;13.97;;
13404;SDS011;6773;51.192;7.024;2024-03-08T01:37:43;17.00;;;13.53;;
13404;SDS011;6773;51.192;7.024;2024-03-08T01:40:09;21.33;;;15.20;;
13404;SDS011;6773;51.192;7.024;2024-03-08T01:42:35;21.10;;;15.97;;
13404;SDS011;6773;51.192;7.024;2024-03-08T01:45:05;19.37;;;14.43;;
13404;SDS011;6773;51.192;7.024;2024-03-08T01:47:31;20.93;;;15.10;;
13404;SDS011;6773;51.192;7.024;2024-03-08T01:49:59;19.90;;;13.80;;
13404;SDS011;6773;51.192;7.024;2024-03-08T01:52:31;18.80;;;14.87;;
13404;SDS011;6773;51.192;7.024;2024-03-08T01:54:58;19.27;;;15.10;;
13404;SDS011;6773;51.192;7.024;2024-03-08T01:57:26;22.93;;;14.33;;
13404;SDS011;6773;51.192;7.024;2024-03-08T01:59:52;20.60;;;14.53;;
13404;SDS011;6773;51.192;7.024;2024-03-08T02:02:20;20.83;;;14.63;;
13404;SDS011;6773;51.192;7.024;2024-03-08T02:04:47;18.03;;;13.33;;
13404;SDS011;6773;51.192;7.024;2024-03-08T02:07:13;22.57;;;14.10;;
13404;SDS011;6773;51.192;7.024;2024-03-08T02:09:39;22.33;;;14.93;;
13404;SDS011;6773;51.192;7.024;2024-03-08T02:12:06;20.80;;;15.10;;
13404;SDS011;6773;51.192;7.024;2024-03-08T02:14:33;20.37;;;15.20;;
13404;SDS011;6773;51.192;7.024;2024-03-08T02:17:02;17.43;;;13.67;;
13404;SDS011;6773;51.192;7.024;2024-03-08T02:19:29;20.13;;;14.73;;
13404;SDS011;6773;51.192;7.024;2024-03-08T02:21:55;21.47;;;15.27;;
13404;SDS011;6773;51.192;7.024;2024-03-08T02:24:21;22.30;;;13.90;;
13404;SDS011;6773;51.192;7.024;2024-03-08T02:26:48;22.87;;;15.23;;
13404;SDS011;6773;51.192;7.024;2024-03-08T02:29:14;24.37;;;16.30;;
13404;SDS011;6773;51.192;7.024;2024-03-08T02:31:40;19.57;;;15.03;;
13404;SDS011;6773;51.192;7.024;2024-03-08T02:34:07;21.83;;;15.03;;
13404;SDS011;6773;51.192;7.024;2024-03-08T02:36:34;17.73;;;14.33;;
13404;SDS011;6773;51.192;7.024;2024-03-08T02:39:03;22.87;;;14.63;;
13404;SDS011;6773;51.192;7.024;2024-03-08T02:41:30;21.97;;;15.80;;
13404;SDS011;6773;51.192;7.024;2024-03-08T02:43:57;22.60;;;14.97;;
13404;SDS011;6773;51.192;7.024;2024-03-08T02:46:23;21.43;;;14.77;;
13404;SDS011;6773;51.192;7.024;2024-03-08T02:48:49;24.03;;;15.70;;
13404;SDS011;6773;51.192;7.024;2024-03-08T02:51:15;21.80;;;15.40;;
13404;SDS011;6773;51.192;7.024;2024-03-08T02:53:41;20.40;;;14.50;;
13404;SDS011;6773;51.192;7.024;2024-03-08T02:56:08;20.43;;;14.20;;
13404;SDS011;6773;51.192;7.024;2024-03-08T02:58:38;24.80;;;15.43;;
13404;SDS011;6773;51.192;7.024;2024-03-08T03:01:04;18.77;;;14.57;;
13404;SDS011;6773;51.192;7.024;2024-03-08T03:03:30;21.83;;;14.90;;
13404;SDS011;6773;51.192;7.024;2024-03-08T03:05:56;20.40;;;15.07;;
13404;SDS011;6773;51.192;7.024;2024-03-08T03:08:21;22.10;;;14.67;;
13404;SDS011;6773;51.192;7.024;2024-03-08T03:10:48;17.50;;;12.87;;
13404;SDS011;6773;51.192;7.024;2024-03-08T03:13:15;24.63;;;16.13;;
13404;SDS011;6773;51.192;7.024;2024-03-08T03:15:41;21.60;;;13.63;;
13404;SDS011;6773;51.192;7.024;2024-03-08T03:18:07;20.10;;;15.03;;
13404;SDS011;6773;51.192;7.024;2024-03-08T03:20:33;17.50;;;12.87;;
13404;SDS011;6773;51.192;7.024;2024-03-08T03:23:05;21.03;;;14.73;;
13404;SDS011;6773;51.192;7.024;2024-03-08T03:25:33;18.53;;;13.80;;
13404;SDS011;6773;51.192;7.024;2024-03-08T03:28:00;22.30;;;15.50;;
13404;SDS011;6773;51.192;7.024;2024-03-08T03:30:26;17.70;;;13.97;;
13404;SDS011;6773;51.192;7.024;2024-03-08T03:32:55;18.37;;;13.13;;
13404;SDS011;6773;51.192;7.024;2024-03-08T03:35:25;22.33;;;14.93;;
13404;SDS011;6773;51.192;7.024;2024-03-08T03:37:51;21.33;;;14.30;;
13404;SDS011;6773;51.192;7.024;2024-03-08T03:40:31;23.20;;;15.80;;
13404;SDS011;6773;51.192;7.024;2024-03-08T03:42:57;25.00;;;15.23;;
13404;SDS011;6773;51.192;7.024;2024-03-08T03:45:23;18.80;;;12.97;;
13404;SDS011;6773;51.192;7.024;2024-03-08T03:47:50;19.83;;;14.57;;
13404;SDS011;6773;51.192;7.024;2024-03-08T03:50:17;19.40;;;14.77;;
13404;SDS011;6773;51.192;7.024;2024-03-08T03:52:44;22.53;;;14.70;;
13404;SDS011;6773;51.192;7.024;2024-03-08T03:55:10;22.90;;;15.47;;
13404;SDS011;6773;51.192;7.024;2024-03-08T03:57:37;23.03;;;14.77;;
13404;SDS011;6773;51.192;7.024;2024-03-08T04:00:03;21.23;;;14.80;;
13404;SDS011;6773;51.192;7.024;2024-03-08T04:02:29;20.87;;;14.77;;
13404;SDS011;6773;51.192;7.024;2024-03-08T04:04:55;21.20;;;15.37;;
13404;SDS011;6773;51.192;7.024;2024-03-08T04:07:21;20.03;;;13.90;;
13404;SDS011;6773;51.192;7.024;2024-03-08T04:09:47;20.60;;;15.40;;
13404;SDS011;6773;51.192;7.024;2024-03-08T04:12:14;24.70;;;15.67;;
13404;SDS011;6773;51.192;7.024;2024-03-08T04:14:41;20.77;;;15.43;;
13404;SDS011;6773;51.192;7.024;2024-03-08T04:17:07;17.87;;;13.37;;
13404;SDS011;6773;51.192;7.024;2024-03-08T04:19:37;20.23;;;15.33;;
13404;SDS011;6773;51.192;7.024;2024-03-08T04:22:03;21.43;;;14.63;;
13404;SDS011;6773;51.192;7.024;2024-03-08T04:24:28;21.83;;;13.73;;
13404;SDS011;6773;51.192;7.024;2024-03-08T04:26:55;19.30;;;13.73;;
13404;SDS011;6773;51.192;7.024;2024-03-08T04:29:22;22.67;;;15.20;;
13404;SDS011;6773;51.192;7.024;2024-03-08T04:31:48;22.20;;;14.80;;
13404;SDS011;6773;51.192;7.024;2024-03-08T04:34:14;23.50;;;15.03;;
13404;SDS011;6773;51.192;7.024;2024-03-08T04:36:40;16.10;;;12.97;;
13404;SDS011;6773;51.192;7.024;2024-03-08T04:39:06;17.63;;;13.63;;
13404;SDS011;6773;51.192;7.024;2024-03-08T04:41:37;23.03;;;15.27;;
13404;SDS011;6773;51.192;7.024;2024-03-08T04:44:03;23.23;;;14.33;;
13404;SDS011;6773;51.192;7.024;2024-03-08T04:46:29;21.77;;;14.50;;
13404;SDS011;6773;51.192;7.024;2024-03-08T04:48:55;24.43;;;16.57;;
13404;SDS011;6773;51.192;7.024;2024-03-08T04:51:21;22.80;;;15.10;;
13404;SDS011;6773;51.192;7.024;2024-03-08T04:53:47;20.63;;;15.60;;
13404;SDS011;6773;51.192;7.024;2024-03-08T04:56:13;21.33;;;15.17;;
13404;SDS011;6773;51.192;7.024;2024-03-08T04:58:39;21.00;;;15.03;;
13404;SDS011;6773;51.192;7.024;2024-03-08T05:01:05;19.40;;;14.07;;
13404;SDS011;6773;51.192;7.024;2024-03-08T05:03:31;20.73;;;15.60;;
13404;SDS011;6773;51.192;7.024;2024-03-08T05:05:57;19.90;;;14.50;;
13404;SDS011;6773;51.192;7.024;2024-03-08T05:08:23;25.50;;;16.53;;
13404;SDS011;6773;51.192;7.024;2024-03-08T05:10:49;23.40;;;15.77;;
13404;SDS011;6773;51.192;7.024;2024-03-08T05:13:15;21.73;;;14.17;;
13404;SDS011;6773;51.192;7.024;2024-03-08T05:15:41;26.70;;;16.20;;
13404;SDS011;6773;51.192;7.024;2024-03-08T05:18:07;18.80;;;14.33;;
13404;SDS011;6773;51.192;7.024;2024-03-08T05:20:36;22.70;;;15.53;;
13404;SDS011;6773;51.192;7.024;2024-03-08T05:23:02;21.57;;;15.47;;
13404;SDS011;6773;51.192;7.024;2024-03-08T05:25:28;23.10;;;16.13;;
13404;SDS011;6773;51.192;7.024;2024-03-08T05:27:54;24.20;;;16.70;;
13404;SDS011;6773;51.192;7.024;2024-03-08T05:30:20;25.43;;;16.23;;
13404;SDS011;6773;51.192;7.024;2024-03-08T05:32:46;20.33;;;14.53;;
13404;SDS011;6773;51.192;7.024;2024-03-08T05:35:12;22.13;;;15.40;;
13404;SDS011;6773;51.192;7.024;2024-03-08T05:37:41;22.07;;;16.40;;
13404;SDS011;6773;51.192;7.024;2024-03-08T05:40:10;21.33;;;14.10;;
13404;SDS011;6773;51.192;7.024;2024-03-08T05:42:36;22.40;;;15.60;;
13404;SDS011;6773;51.192;7.024;2024-03-08T05:45:03;24.30;;;15.70;;
13404;SDS011;6773;51.192;7.024;2024-03-08T05:47:29;19.37;;;15.00;;
13404;SDS011;6773;51.192;7.024;2024-03-08T05:49:55;21.50;;;14.43;;
13404;SDS011;6773;51.192;7.024;2024-03-08T05:52:20;22.30;;;14.53;;
13404;SDS011;6773;51.192;7.024;2024-03-08T05:54:46;24.37;;;16.57;;
13404;SDS011;6773;51.192;7.024;2024-03-08T05:57:12;22.40;;;15.20;;
13404;SDS011;6773;51.192;7.024;2024-03-08T05:59:42;22.33;;;15.77;;
13404;SDS011;6773;51.192;7.024;2024-03-08T06:02:08;21.93;;;15.43;;
13404;SDS011;6773;51.192;7.024;2024-03-08T06:04:34;23.70;;;16.43;;
13404;SDS011;6773;51.192;7.024;2024-03-08T06:06:59;20.27;;;14.47;;
13404;SDS011;6773;51.192;7.024;2024-03-08T06:09:28;23.93;;;16.60;;
13404;SDS011;6773;51.192;7.024;2024-03-08T06:11:54;23.53;;;15.47;;
13404;SDS011;6773;51.192;7.024;2024-03-08T06:14:22;19.10;;;15.13;;
13404;SDS011;6773;51.192;7.024;2024-03-08T06:16:48;21.70;;;15.17;;
13404;SDS011;6773;51.192;7.024;2024-03-08T06:19:17;24.07;;;15.57;;
13404;SDS011;6773;51.192;7.024;2024-03-08T06:21:43;26.83;;;17.13;;
13404;SDS011;6773;51.192;7.024;2024-03-08T06:24:08;22.73;;;15.80;;
13404;SDS011;6773;51.192;7.024;2024-03-08T06:26:34;21.93;;;15.20;;
13404;SDS011;6773;51.192;7.024;2024-03-08T06:29:02;25.13;;;17.03;;
13404;SDS011;6773;51.192;7.024;2024-03-08T06:31:31;22.30;;;15.87;;
13404;SDS011;6773;51.192;7.024;2024-03-08T06:33:57;23.17;;;15.97;;
13404;SDS011;6773;51.192;7.024;2024-03-08T06:36:23;23.97;;;16.37;;
13404;SDS011;6773;51.192;7.024;2024-03-08T06:38:50;24.33;;;16.17;;
13404;SDS011;6773;51.192;7.024;2024-03-08T06:41:16;23.90;;;16.67;;
13404;SDS011;6773;51.192;7.024;2024-03-08T06:43:45;23.00;;;15.63;;
13404;SDS011;6773;51.192;7.024;2024-03-08T06:46:14;25.03;;;15.67;;
13404;SDS011;6773;51.192;7.024;2024-03-08T06:48:40;24.67;;;17.10;;
13404;SDS011;6773;51.192;7.024;2024-03-08T06:51:06;21.43;;;14.57;;
13404;SDS011;6773;51.192;7.024;2024-03-08T06:53:32;23.53;;;15.70;;
13404;SDS011;6773;51.192;7.024;2024-03-08T06:56:00;24.57;;;16.03;;
13404;SDS011;6773;51.192;7.024;2024-03-08T06:58:26;23.10;;;16.00;;
13404;SDS011;6773;51.192;7.024;2024-03-08T07:00:53;28.33;;;17.57;;
13404;SDS011;6773;51.192;7.024;2024-03-08T07:03:23;26.10;;;16.97;;
13404;SDS011;6773;51.192;7.024;2024-03-08T07:05:49;21.83;;;15.80;;
13404;SDS011;6773;51.192;7.024;2024-03-08T07:08:15;22.97;;;16.13;;
13404;SDS011;6773;51.192;7.024;2024-03-08T07:10:41;20.97;;;15.83;;
13404;SDS011;6773;51.192;7.024;2024-03-08T07:13:10;22.07;;;15.73;;
13404;SDS011;6773;51.192;7.024;2024-03-08T07:15:36;24.73;;;15.53;;
13404;SDS011;6773;51.192;7.024;2024-03-08T07:18:02;25.63;;;15.33;;
13404;SDS011;6773;51.192;7.024;2024-03-08T07:20:28;21.93;;;14.77;;
13404;SDS011;6773;51.192;7.024;2024-03-08T07:22:54;22.43;;;16.50;;
13404;SDS011;6773;51.192;7.024;2024-03-08T07:25:20;21.27;;;14.40;;
13404;SDS011;6773;51.192;7.024;2024-03-08T07:27:50;20.53;;;14.70;;
13404;SDS011;6773;51.192;7.024;2024-03-08T07:30:19;22.60;;;16.03;;
13404;SDS011;6773;51.192;7.024;2024-03-08T07:33:04;19.57;;;12.90;;
13404;SDS011;6773;51.192;7.024;2024-03-08T07:35:32;18.93;;;13.47;;
13404;SDS011;6773;51.192;7.024;2024-03-08T07:37:58;21.07;;;14.87;;
13404;SDS011;6773;51.192;7.024;2024-03-08T07:40:27;22.00;;;14.67;;
13404;SDS011;6773;51.192;7.024;2024-03-08T07:42:53;23.50;;;16.00;;
13404;SDS011;6773;51.192;7.024;2024-03-08T07:45:19;19.97;;;14.73;;
13404;SDS011;6773;51.192;7.024;2024-03-08T07:47:47;20.20;;;14.53;;
13404;SDS011;6773;51.192;7.024;2024-03-08T07:50:12;24.80;;;14.57;;
13404;SDS011;6773;51.192;7.024;2024-03-08T07:52:41;20.73;;;15.83;;
13404;SDS011;6773;51.192;7.024;2024-03-08T07:55:07;23.67;;;15.37;;
13404;SDS011;6773;51.192;7.024;2024-03-08T07:57:33;19.93;;;14.93;;
13404;SDS011;6773;51.192;7.024;2024-03-08T07:59:59;18.53;;;13.13;;
13404;SDS011;6773;51.192;7.024;2024-03-08T08:02:25;20.03;;;14.47;;
13404;SDS011;6773;51.192;7.024;2024-03-08T08:04:52;19.23;;;13.73;;
13404;SDS011;6773;51.192;7.024;2024-03-08T08:07:18;19.60;;;14.50;;
13404;SDS011;6773;51.192;7.024;2024-03-08T08:09:44;18.40;;;13.33;;
13404;SDS011;6773;51.192;7.024;2024-03-08T08:12:10;21.73;;;13.83;;
13404;SDS011;6773;51.192;7.024;2024-03-08T08:14:39;20.57;;;13.20;;
13404;SDS011;6773;51.192;7.024;2024-03-08T08:17:06;18.60;;;13.67;;
13404;SDS011;6773;51.192;7.024;2024-03-08T08:19:33;16.47;;;11.90;;
13404;SDS011;6773;51.192;7.024;2024-03-08T08:22:00;17.23;;;12.83;;
13404;SDS011;6773;51.192;7.024;2024-03-08T08:24:27;18.37;;;12.87;;
13404;SDS011;6773;51.192;7.024;2024-03-08T08:26:53;15.20;;;12.80;;
13404;SDS011;6773;51.192;7.024;2024-03-08T08:29:18;16.63;;;12.87;;
13404;SDS011;6773;51.192;7.024;2024-03-08T08:31:45;20.07;;;13.03;;
13404;SDS011;6773;51.192;7.024;2024-03-08T08:34:12;22.37;;;13.70;;
13404;SDS011;6773;51.192;7.024;2024-03-08T08:36:38;18.23;;;13.03;;
13404;SDS011;6773;51.192;7.024;2024-03-08T08:39:05;16.50;;;13.30;;
13404;SDS011;6773;51.192;7.024;2024-03-08T08:41:37;16.50;;;12.67;;
13404;SDS011;6773;51.192;7.024;2024-03-08T08:44:03;18.47;;;12.40;;
13404;SDS011;6773;51.192;7.024;2024-03-08T08:46:29;16.83;;;13.17;;
13404;SDS011;6773;51.192;7.024;2024-03-08T08:48:55;20.00;;;12.23;;
13404;SDS011;6773;51.192;7.024;2024-03-08T08:51:21;16.47;;;12.27;;
13404;SDS011;6773;51.192;7.024;2024-03-08T08:53:48;19.67;;;13.37;;
13404;SDS011;6773;51.192;7.024;2024-03-08T08:56:14;15.83;;;10.90;;
13404;SDS011;6773;51.192;7.024;2024-03-08T08:58:40;16.93;;;12.37;;
13404;SDS011;6773;51.192;7.024;2024-03-08T09:01:07;16.30;;;11.93;;
13404;SDS011;6773;51.192;7.024;2024-03-08T09:03:35;16.20;;;12.53;;
13404;SDS011;6773;51.192;7.024;2024-03-08T09:06:02;15.53;;;11.93;;
13404;SDS011;6773;51.192;7.024;2024-03-08T09:08:32;14.60;;;11.83;;
13404;SDS011;6773;51.192;7.024;2024-03-08T09:10:59;16.23;;;12.03;;
13404;SDS011;6773;51.192;7.024;2024-03-08T09:13:25;16.80;;;12.40;;
13404;SDS011;6773;51.192;7.024;2024-03-08T09:15:51;16.60;;;12.50;;
13404;SDS011;6773;51.192;7.024;2024-03-08T09:18:17;15.37;;;11.77;;
13404;SDS011;6773;51.192;7.024;2024-03-08T09:20:44;15.13;;;11.77;;
13404;SDS011;6773;51.192;7.024;2024-03-08T09:23:10;15.00;;;12.00;;
13404;SDS011;6773;51.192;7.024;2024-03-08T09:25:36;13.97;;;11.30;;
13404;SDS011;6773;51.192;7.024;2024-03-08T09:28:02;17.83;;;12.70;;
13404;SDS011;6773;51.192;7.024;2024-03-08T09:30:30;13.80;;;11.43;;
13404;SDS011;6773;51.192;7.024;2024-03-08T09:32:56;14.67;;;11.27;;
13404;SDS011;6773;51.192;7.024;2024-03-08T09:35:21;13.43;;;10.83;;
13404;SDS011;6773;51.192;7.024;2024-03-08T09:37:47;14.50;;;12.10;;
13404;SDS011;6773;51.192;7.024;2024-03-08T09:40:16;17.93;;;12.87;;
13404;SDS011;6773;51.192;7.024;2024-03-08T09:42:45;13.53;;;11.77;;
13404;SDS011;6773;51.192;7.024;2024-03-08T09:45:12;16.73;;;12.43;;
13404;SDS011;6773;51.192;7.024;2024-03-08T09:47:44;16.50;;;12.47;;
13404;SDS011;6773;51.192;7.024;2024-03-08T09:50:11;14.87;;;11.10;;
13404;SDS011;6773;51.192;7.024;2024-03-08T09:52:47;14.27;;;11.47;;
13404;SDS011;6773;51.192;7.024;2024-03-08T09:55:14;16.40;;;11.37;;
13404;SDS011;6773;51.192;7.024;2024-03-08T09:57:42;11.60;;;10.00;;
13404;SDS011;6773;51.192;7.024;2024-03-08T10:00:31;12.97;;;9.87;;
13404;SDS011;6773;51.192;7.024;2024-03-08T10:03:00;14.07;;;10.93;;
13404;SDS011;6773;51.192;7.024;2024-03-08T10:05:26;11.50;;;10.10;;
13404;SDS011;6773;51.192;7.024;2024-03-08T10:07:52;13.00;;;10.67;;
13404;SDS011;6773;51.192;7.024;2024-03-08T10:10:18;12.97;;;10.43;;
13404;SDS011;6773;51.192;7.024;2024-03-08T10:12:45;13.33;;;10.73;;
13404;SDS011;6773;51.192;7.024;2024-03-08T10:15:11;13.63;;;10.57;;
13404;SDS011;6773;51.192;7.024;2024-03-08T10:17:41;12.27;;;10.70;;
13404;SDS011;6773;51.192;7.024;2024-03-08T10:20:13;12.73;;;9.43;;
13404;SDS011;6773;51.192;7.024;2024-03-08T10:22:40;11.67;;;9.43;;
13404;SDS011;6773;51.192;7.024;2024-03-08T10:25:09;10.60;;;9.43;;
13404;SDS011;6773;51.192;7.024;2024-03-08T10:27:36;11.63;;;9.80;;
13404;SDS011;6773;51.192;7.024;2024-03-08T10:30:03;12.50;;;9.80;;
13404;SDS011;6773;51.192;7.024;2024-03-08T10:32:31;13.47;;;10.07;;
13404;SDS011;6773;51.192;7.024;2024-03-08T10:34:56;12.87;;;10.40;;
13404;SDS011;6773;51.192;7.024;2024-03-08T10:37:22;10.60;;;8.63;;
13404;SDS011;6773;51.192;7.024;2024-03-08T10:39:57;9.33;;;8.40;;
13404;SDS011;6773;51.192;7.024;2024-03-08T10:42:25;10.80;;;9.33;;
13404;SDS011;6773;51.192;7.024;2024-03-08T10:45:09;11.90;;;9.93;;
13404;SDS011;6773;51.192;7.024;2024-03-08T10:47:38;12.90;;;9.17;;
13404;SDS011;6773;51.192;7.024;2024-03-08T10:52:35;12.00;;;9.80;;
13404;SDS011;6773;51.192;7.024;2024-03-08T10:55:02;11.53;;;9.47;;
13404;SDS011;6773;51.192;7.024;2024-03-08T10:57:28;9.90;;;8.37;;
13404;SDS011;6773;51.192;7.024;2024-03-08T10:59:54;10.50;;;9.20;;
13404;SDS011;6773;51.192;7.024;2024-03-08T11:02:20;11.37;;;9.43;;
13404;SDS011;6773;51.192;7.024;2024-03-08T11:04:47;12.43;;;9.53;;
13404;SDS011;6773;51.192;7.024;2024-03-08T11:07:14;10.43;;;8.27;;
13404;SDS011;6773;51.192;7.024;2024-03-08T11:09:43;13.93;;;9.93;;
13404;SDS011;6773;51.192;7.024;2024-03-08T11:12:28;11.17;;;9.10;;
13404;SDS011;6773;51.192;7.024;2024-03-08T11:15:15;9.90;;;8.57;;
13404;SDS011;6773;51.192;7.024;2024-03-08T11:17:50;12.63;;;9.27;;
13404;SDS011;6773;51.192;7.024;2024-03-08T11:20:20;10.47;;;9.30;;
13404;SDS011;6773;51.192;7.024;2024-03-08T11:25:32;10.27;;;9.13;;
13404;SDS011;6773;51.192;7.024;2024-03-08T11:28:08;9.73;;;8.73;;
13404;SDS011;6773;51.192;7.024;2024-03-08T11:33:15;10.30;;;9.20;;
13404;SDS011;6773;51.192;7.024;2024-03-08T11:35:41;10.67;;;8.30;;
13404;SDS011;6773;51.192;7.024;2024-03-08T11:38:10;10.50;;;8.97;;
13404;SDS011;6773;51.192;7.024;2024-03-08T11:40:36;11.73;;;8.40;;
13404;SDS011;6773;51.192;7.024;2024-03-08T11:43:02;10.17;;;9.03;;
13404;SDS011;6773;51.192;7.024;2024-03-08T11:45:32;10.10;;;8.70;;
13404;SDS011;6773;51.192;7.024;2024-03-08T11:48:01;12.27;;;9.53;;
13404;SDS011;6773;51.192;7.024;2024-03-08T11:50:28;10.90;;;8.73;;
13404;SDS011;6773;51.192;7.024;2024-03-08T11:53:00;10.57;;;9.00;;
13404;SDS011;6773;51.192;7.024;2024-03-08T11:55:26;9.83;;;8.83;;
13404;SDS011;6773;51.192;7.024;2024-03-08T11:57:59;9.97;;;8.57;;
13404;SDS011;6773;51.192;7.024;2024-03-08T12:00:25;10.53;;;8.93;;
13404;SDS011;6773;51.192;7.024;2024-03-08T12:03:06;11.10;;;9.17;;
13404;SDS011;6773;51.192;7.024;2024-03-08T12:05:34;10.97;;;9.23;;
13404;SDS011;6773;51.192;7.024;2024-03-08T12:08:04;10.07;;;8.57;;
13404;SDS011;6773;51.192;7.024;2024-03-08T12:10:32;9.80;;;8.73;;
13404;SDS011;6773;51.192;7.024;2024-03-08T12:13:00;10.67;;;9.13;;
13404;SDS011;6773;51.192;7.024;2024-03-08T12:15:26;11.33;;;9.57;;
13404;SDS011;6773;51.192;7.024;2024-03-08T12:17:53;10.50;;;9.07;;
13404;SDS011;6773;51.192;7.024;2024-03-08T12:20:24;9.97;;;8.97;;
13404;SDS011;6773;51.192;7.024;2024-03-08T12:22:51;10.83;;;9.37;;
13404;SDS011;6773;51.192;7.024;2024-03-08T12:25:18;9.77;;;8.63;;
13404;SDS011;6773;51.192;7.024;2024-03-08T12:27:45;10.17;;;9.07;;
13404;SDS011;6773;51.192;7.024;2024-03-08T12:30:15;9.53;;;8.63;;
13404;SDS011;6773;51.192;7.024;2024-03-08T12:32:46;9.13;;;7.90;;
13404;SDS011;6773;51.192;7.024;2024-03-08T12:35:12;9.20;;;8.03;;
13404;SDS011;6773;51.192;7.024;2024-03-08T12:37:38;10.47;;;8.63;;
13404;SDS011;6773;51.192;7.024;2024-03-08T12:40:07;9.98;;;8.35;;
13404;SDS011;6773;51.192;7.024;2024-03-08T12:42:34;9.00;;;8.10;;
13404;SDS011;6773;51.192;7.024;2024-03-08T12:45:00;8.70;;;7.90;;
13404;SDS011;6773;51.192;7.024;2024-03-08T12:47:28;9.17;;;7.93;;
13404;SDS011;6773;51.192;7.024;2024-03-08T12:49:54;9.33;;;8.07;;
13404;SDS011;6773;51.192;7.024;2024-03-08T12:52:19;8.37;;;7.57;;
13404;SDS011;6773;51.192;7.024;2024-03-08T12:54:45;9.13;;;8.23;;
13404;SDS011;6773;51.192;7.024;2024-03-08T12:57:12;8.87;;;7.73;;
13404;SDS011;6773;51.192;7.024;2024-03-08T12:59:38;10.77;;;8.70;;
13404;SDS011;6773;51.192;7.024;2024-03-08T13:02:07;9.63;;;8.23;;
13404;SDS011;6773;51.192;7.024;2024-03-08T13:04:36;9.23;;;8.00;;
13404;SDS011;6773;51.192;7.024;2024-03-08T13:07:02;8.73;;;7.83;;
13404;SDS011;6773;51.192;7.024;2024-03-08T13:09:28;9.70;;;8.27;;
13404;SDS011;6773;51.192;7.024;2024-03-08T13:11:54;8.33;;;7.50;;
13404;SDS011;6773;51.192;7.024;2024-03-08T13:14:20;8.60;;;7.57;;
13404;SDS011;6773;51.192;7.024;2024-03-08T13:16:46;8.83;;;7.63;;
13404;SDS011;6773;51.192;7.024;2024-03-08T13:19:13;9.50;;;8.50;;
13404;SDS011;6773;51.192;7.024;2024-03-08T13:21:39;10.03;;;8.37;;
13404;SDS011;6773;51.192;7.024;2024-03-08T13:24:05;8.70;;;7.90;;
13404;SDS011;6773;51.192;7.024;2024-03-08T13:26:31;9.97;;;8.23;;
13404;SDS011;6773;51.192;7.024;2024-03-08T13:28:58;8.93;;;8.02;;
13404;SDS011;6773;51.192;7.024;2024-03-08T13:31:24;9.27;;;8.25;;
13404;SDS011;6773;51.192;7.024;2024-03-08T13:33:50;9.30;;;7.93;;
13404;SDS011;6773;51.192;7.024;2024-03-08T13:36:22;9.80;;;7.93;;
13404;SDS011;6773;51.192;7.024;2024-03-08T13:38:53;10.97;;;9.10;;
13404;SDS011;6773;51.192;7.024;2024-03-08T13:41:19;10.03;;;8.73;;
13404;SDS011;6773;51.192;7.024;2024-03-08T13:43:49;9.87;;;8.40;;
13404;SDS011;6773;51.192;7.024;2024-03-08T13:46:16;8.67;;;7.30;;
13404;SDS011;6773;51.192;7.024;2024-03-08T13:48:42;10.57;;;8.17;;
13404;SDS011;6773;51.192;7.024;2024-03-08T13:51:08;9.83;;;8.63;;
13404;SDS011;6773;51.192;7.024;2024-03-08T13:53:40;8.33;;;7.50;;
13404;SDS011;6773;51.192;7.024;2024-03-08T13:56:06;9.83;;;8.83;;
13404;SDS011;6773;51.192;7.024;2024-03-08T13:58:35;11.00;;;9.23;;
13404;SDS011;6773;51.192;7.024;2024-03-08T14:01:01;11.50;;;9.27;;
13404;SDS011;6773;51.192;7.024;2024-03-08T14:03:28;9.67;;;8.67;;
13404;SDS011;6773;51.192;7.024;2024-03-08T14:05:54;10.15;;;8.55;;
13404;SDS011;6773;51.192;7.024;2024-03-08T14:08:20;10.57;;;9.33;;
13404;SDS011;6773;51.192;7.024;2024-03-08T14:10:47;11.20;;;9.47;;
13404;SDS011;6773;51.192;7.024;2024-03-08T14:13:14;10.67;;;9.37;;
13404;SDS011;6773;51.192;7.024;2024-03-08T14:15:42;10.50;;;9.13;;
13404;SDS011;6773;51.192;7.024;2024-03-08T14:18:11;11.70;;;9.07;;
13404;SDS011;6773;51.192;7.024;2024-03-08T14:20:38;10.33;;;9.23;;
13404;SDS011;6773;51.192;7.024;2024-03-08T14:23:04;11.03;;;9.27;;
13404;SDS011;6773;51.192;7.024;2024-03-08T14:25:32;11.43;;;10.17;;
13404;SDS011;6773;51.192;7.024;2024-03-08T14:27:58;10.47;;;9.40;;
13404;SDS011;6773;51.192;7.024;2024-03-08T14:30:29;11.47;;;9.27;;
13404;SDS011;6773;51.192;7.024;2024-03-08T14:33:06;12.80;;;9.93;;
13404;SDS011;6773;51.192;7.024;2024-03-08T14:35:34;12.37;;;9.73;;
13404;SDS011;6773;51.192;7.024;2024-03-08T14:38:01;11.53;;;9.60;;
13404;SDS011;6773;51.192;7.024;2024-03-08T14:40:27;12.10;;;9.40;;
13404;SDS011;6773;51.192;7.024;2024-03-08T14:42:55;11.83;;;9.87;;
13404;SDS011;6773;51.192;7.024;2024-03-08T14:45:21;11.03;;;9.70;;
13404;SDS011;6773;51.192;7.024;2024-03-08T14:47:49;12.13;;;10.53;;
13404;SDS011;6773;51.192;7.024;2024-03-08T14:50:19;11.50;;;9.50;;